sensor_id;sensor_type;location;lat;lon;timestamp;pressure;altitude;pressure_sealevel;temperature;humidity
39083;BME280;24834;44.444;26.098;2023-03-04T00:05:34;100687.00;;;8.45;
39083;BME280;24834;44.444;26.098;2023-03-04T00:11:37;100686.94;;;8.40;
39083;BME280;24834;44.444;26.098;2023-03-04T00:17:42;100672.56;;;8.42;
39083;BME280;24834;44.444;26.098;2023-03-04T00:23:45;100658.81;;;8.20;
39083;BME280;24834;44.444;26.098;2023-03-04T00:29:47;100658.66;;;8.37;
39083;BME280;24834;44.444;26.098;2023-03-04T00:35:50;100658.59;;;8.27;
39083;BME280;24834;44.444;26.098;2023-03-04T00:41:53;100657.63;;;8.43;
39083;BME280;24834;44.444;26.098;2023-03-04T00:47:55;100664.72;;;8.48;
39083;BME280;24834;44.444;26.098;2023-03-04T00:53:59;100656.66;;;8.59;
39083;BME280;24834;44.444;26.098;2023-03-04T01:00:02;100665.06;;;8.71;
39083;BME280;24834;44.444;26.098;2023-03-04T01:06:06;100677.69;;;8.79;
39083;BME280;24834;44.444;26.098;2023-03-04T01:12:09;100673.00;;;8.86;
39083;BME280;24834;44.444;26.098;2023-03-04T01:18:11;100671.91;;;8.77;
39083;BME280;24834;44.444;26.098;2023-03-04T01:24:13;100672.25;;;8.96;
39083;BME280;24834;44.444;26.098;2023-03-04T01:30:17;100674.34;;;8.94;
39083;BME280;24834;44.444;26.098;2023-03-04T01:36:19;100678.13;;;8.61;
39083;BME280;24834;44.444;26.098;2023-03-04T01:42:22;100676.91;;;8.84;
39083;BME280;24834;44.444;26.098;2023-03-04T01:48:31;100680.53;;;8.73;
39083;BME280;24834;44.444;26.098;2023-03-04T01:54:40;100668.78;;;8.80;
39083;BME280;24834;44.444;26.098;2023-03-04T02:00:44;100654.56;;;8.71;
39083;BME280;24834;44.444;26.098;2023-03-04T02:06:48;100661.69;;;8.81;
39083;BME280;24834;44.444;26.098;2023-03-04T02:12:51;100668.81;;;8.85;
39083;BME280;24834;44.444;26.098;2023-03-04T02:18:54;100683.75;;;8.90;
39083;BME280;24834;44.444;26.098;2023-03-04T02:25:06;100695.53;;;8.82;
39083;BME280;24834;44.444;26.098;2023-03-04T02:31:47;100695.06;;;9.01;
39083;BME280;24834;44.444;26.098;2023-03-04T02:37:47;100704.50;;;8.97;
39083;BME280;24834;44.444;26.098;2023-03-04T02:43:53;100703.97;;;9.00;
39083;BME280;24834;44.444;26.098;2023-03-04T02:49:57;100692.22;;;9.12;
39083;BME280;24834;44.444;26.098;2023-03-04T02:56:01;100698.53;;;9.21;
39083;BME280;24834;44.444;26.098;2023-03-04T03:02:09;100678.88;;;9.34;
39083;BME280;24834;44.444;26.098;2023-03-04T03:08:12;100684.41;;;9.53;
39083;BME280;24834;44.444;26.098;2023-03-04T03:14:15;100678.59;;;9.15;
39083;BME280;24834;44.444;26.098;2023-03-04T03:20:18;100675.44;;;9.13;
39083;BME280;24834;44.444;26.098;2023-03-04T03:26:21;100675.16;;;9.05;
39083;BME280;24834;44.444;26.098;2023-03-04T03:32:25;100668.63;;;9.22;
39083;BME280;24834;44.444;26.098;2023-03-04T03:38:27;100665.50;;;9.25;
39083;BME280;24834;44.444;26.098;2023-03-04T03:44:30;100664.72;;;9.50;
39083;BME280;24834;44.444;26.098;2023-03-04T03:50:33;100659.75;;;9.54;
39083;BME280;24834;44.444;26.098;2023-03-04T03:56:36;100659.97;;;9.47;
39083;BME280;24834;44.444;26.098;2023-03-04T04:02:39;100667.06;;;9.36;
39083;BME280;24834;44.444;26.098;2023-03-04T04:08:43;100667.31;;;9.20;
39083;BME280;24834;44.444;26.098;2023-03-04T04:14:47;100672.53;;;9.15;
39083;BME280;24834;44.444;26.098;2023-03-04T04:20:50;100679.91;;;9.13;
39083;BME280;24834;44.444;26.098;2023-03-04T04:26:56;100685.09;;;9.03;
39083;BME280;24834;44.444;26.098;2023-03-04T04:32:59;100685.94;;;9.13;
39083;BME280;24834;44.444;26.098;2023-03-04T04:39:03;100682.56;;;9.38;
39083;BME280;24834;44.444;26.098;2023-03-04T04:45:06;100682.56;;;9.53;
39083;BME280;24834;44.444;26.098;2023-03-04T04:51:10;100684.13;;;9.54;
39083;BME280;24834;44.444;26.098;2023-03-04T04:57:13;100685.19;;;9.48;
39083;BME280;24834;44.444;26.098;2023-03-04T05:03:17;100687.00;;;9.48;
39083;BME280;24834;44.444;26.098;2023-03-04T05:09:20;100697.78;;;9.41;
